sensor_id;sensor_type;location;lat;lon;timestamp;pressure;altitude;pressure_sealevel;temperature;humidity
28312;BME280;15572;48.810;9.148;2022-07-06T00:04:26;98671.03;;;17.87;69.13
28312;BME280;15572;48.810;9.148;2022-07-06T00:09:24;98674.63;;;17.69;70.60
28312;BME280;15572;48.810;9.148;2022-07-06T00:14:21;98667.16;;;17.58;70.94
28312;BME280;15572;48.810;9.148;2022-07-06T00:19:17;98668.44;;;17.62;70.86
28312;BME280;15572;48.810;9.148;2022-07-06T00:24:14;98665.91;;;17.60;70.92
28312;BME280;15572;48.810;9.148;2022-07-06T00:29:14;98660.94;;;17.51;71.66
28312;BME280;15572;48.810;9.148;2022-07-06T00:34:10;98668.63;;;17.42;72.40
28312;BME280;15572;48.810;9.148;2022-07-06T00:39:07;98662.84;;;17.32;72.75
28312;BME280;15572;48.810;9.148;2022-07-06T00:44:07;98670.00;;;17.33;73.04
28312;BME280;15572;48.810;9.148;2022-07-06T00:49:06;98670.84;;;17.34;72.73
28312;BME280;15572;48.810;9.148;2022-07-06T00:54:23;98671.06;;;17.14;73.70
28312;BME280;15572;48.810;9.148;2022-07-06T00:59:20;98669.81;;;17.10;73.82
28312;BME280;15572;48.810;9.148;2022-07-06T01:04:18;98670.75;;;17.04;74.22
28312;BME280;15572;48.810;9.148;2022-07-06T01:09:14;98670.34;;;17.00;74.21
28312;BME280;15572;48.810;9.148;2022-07-06T01:14:12;98664.06;;;17.00;73.91
28312;BME280;15572;48.810;9.148;2022-07-06T01:19:08;98670.19;;;16.95;73.51
28312;BME280;15572;48.810;9.148;2022-07-06T01:24:07;98662.06;;;16.89;73.68
28312;BME280;15572;48.810;9.148;2022-07-06T01:29:03;98659.88;;;16.97;73.02
28312;BME280;15572;48.810;9.148;2022-07-06T01:34:00;98657.53;;;16.82;73.46
28312;BME280;15572;48.810;9.148;2022-07-06T01:38:56;98656.34;;;16.72;73.51
28312;BME280;15572;48.810;9.148;2022-07-06T01:43:55;98658.25;;;16.71;73.09
28312;BME280;15572;48.810;9.148;2022-07-06T01:48:51;98655.91;;;16.75;72.59
28312;BME280;15572;48.810;9.148;2022-07-06T01:53:48;98656.47;;;16.59;73.38
28312;BME280;15572;48.810;9.148;2022-07-06T01:58:45;98661.53;;;16.55;73.24
28312;BME280;15572;48.810;9.148;2022-07-06T02:03:44;98664.09;;;16.50;73.00
28312;BME280;15572;48.810;9.148;2022-07-06T02:08:41;98673.25;;;16.31;74.17
28312;BME280;15572;48.810;9.148;2022-07-06T02:13:38;98680.53;;;16.43;73.49
28312;BME280;15572;48.810;9.148;2022-07-06T02:18:35;98675.41;;;16.29;74.21
28312;BME280;15572;48.810;9.148;2022-07-06T02:23:33;98665.09;;;16.24;74.39
28312;BME280;15572;48.810;9.148;2022-07-06T02:28:30;98670.63;;;16.18;75.19
28312;BME280;15572;48.810;9.148;2022-07-06T02:33:27;98668.50;;;16.20;75.52
28312;BME280;15572;48.810;9.148;2022-07-06T02:38:23;98672.75;;;16.16;75.87
28312;BME280;15572;48.810;9.148;2022-07-06T02:43:21;98682.69;;;16.04;76.92
28312;BME280;15572;48.810;9.148;2022-07-06T02:48:18;98683.13;;;16.07;76.36
28312;BME280;15572;48.810;9.148;2022-07-06T02:53:17;98688.13;;;16.10;76.58
28312;BME280;15572;48.810;9.148;2022-07-06T02:58:13;98678.09;;;15.97;77.42
28312;BME280;15572;48.810;9.148;2022-07-06T03:03:11;98686.97;;;15.93;77.94
28312;BME280;15572;48.810;9.148;2022-07-06T03:08:08;98689.59;;;15.75;79.27
28312;BME280;15572;48.810;9.148;2022-07-06T03:13:04;98696.75;;;15.69;80.26
28312;BME280;15572;48.810;9.148;2022-07-06T03:18:01;98699.25;;;15.71;80.71
28312;BME280;15572;48.810;9.148;2022-07-06T03:22:58;98699.97;;;15.53;81.97
28312;BME280;15572;48.810;9.148;2022-07-06T03:27:55;98702.91;;;15.58;82.09
28312;BME280;15572;48.810;9.148;2022-07-06T03:32:51;98705.63;;;15.51;82.90
28312;BME280;15572;48.810;9.148;2022-07-06T03:37:48;98706.66;;;15.50;83.51
28312;BME280;15572;48.810;9.148;2022-07-06T03:42:46;98707.06;;;15.61;82.77
28312;BME280;15572;48.810;9.148;2022-07-06T03:47:42;98712.13;;;15.57;83.73
28312;BME280;15572;48.810;9.148;2022-07-06T03:52:39;98706.91;;;15.42;84.61
28312;BME280;15572;48.810;9.148;2022-07-06T03:57:35;98718.63;;;15.49;84.51
28312;BME280;15572;48.810;9.148;2022-07-06T04:02:34;98710.88;;;15.60;84.60
28312;BME280;15572;48.810;9.148;2022-07-06T04:07:31;98725.13;;;15.62;85.00
28312;BME280;15572;48.810;9.148;2022-07-06T04:12:28;98721.16;;;15.57;85.86
28312;BME280;15572;48.810;9.148;2022-07-06T04:17:24;98725.97;;;15.62;85.91
28312;BME280;15572;48.810;9.148;2022-07-06T04:22:39;98728.47;;;15.70;85.80
28312;BME280;15572;48.810;9.148;2022-07-06T04:27:36;98723.41;;;15.67;86.61
28312;BME280;15572;48.810;9.148;2022-07-06T04:32:32;98730.09;;;15.78;86.57
28312;BME280;15572;48.810;9.148;2022-07-06T04:37:29;98741.19;;;15.83;86.48
28312;BME280;15572;48.810;9.148;2022-07-06T04:42:27;98743.88;;;15.96;86.31
28312;BME280;15572;48.810;9.148;2022-07-06T04:47:23;98743.63;;;15.97;86.59
28312;BME280;15572;48.810;9.148;2022-07-06T04:52:20;98750.34;;;16.02;86.57
28312;BME280;15572;48.810;9.148;2022-07-06T04:57:16;98757.63;;;16.14;86.04
28312;BME280;15572;48.810;9.148;2022-07-06T05:02:14;98760.78;;;16.18;86.42
28312;BME280;15572;48.810;9.148;2022-07-06T05:07:11;98756.28;;;16.30;85.80
28312;BME280;15572;48.810;9.148;2022-07-06T05:12:09;98764.63;;;16.35;85.64
28312;BME280;15572;48.810;9.148;2022-07-06T05:17:05;98768.34;;;16.47;83.70
28312;BME280;15572;48.810;9.148;2022-07-06T05:22:03;98770.50;;;16.45;84.94
28312;BME280;15572;48.810;9.148;2022-07-06T05:27:00;98776.72;;;16.59;83.61
28312;BME280;15572;48.810;9.148;2022-07-06T05:31:56;98773.31;;;16.63;83.53
28312;BME280;15572;48.810;9.148;2022-07-06T05:36:53;98780.56;;;16.82;82.87
28312;BME280;15572;48.810;9.148;2022-07-06T05:41:50;98780.72;;;16.88;82.88
28312;BME280;15572;48.810;9.148;2022-07-06T05:46:47;98775.84;;;16.90;81.98
28312;BME280;15572;48.810;9.148;2022-07-06T05:51:43;98776.13;;;16.81;82.40
28312;BME280;15572;48.810;9.148;2022-07-06T05:56:40;98775.34;;;16.74;83.15
28312;BME280;15572;48.810;9.148;2022-07-06T06:01:38;98775.50;;;16.79;83.19
28312;BME280;15572;48.810;9.148;2022-07-06T06:06:34;98784.47;;;16.93;82.09
28312;BME280;15572;48.810;9.148;2022-07-06T06:11:31;98783.13;;;17.02;81.15
28312;BME280;15572;48.810;9.148;2022-07-06T06:16:27;98789.53;;;17.14;80.59
28312;BME280;15572;48.810;9.148;2022-07-06T06:21:25;98786.53;;;17.41;78.97
28312;BME280;15572;48.810;9.148;2022-07-06T06:26:22;98791.44;;;17.57;76.96
28312;BME280;15572;48.810;9.148;2022-07-06T06:31:19;98795.81;;;17.58;76.28
28312;BME280;15572;48.810;9.148;2022-07-06T06:36:15;98802.78;;;17.60;76.09
28312;BME280;15572;48.810;9.148;2022-07-06T06:41:13;98812.97;;;17.72;75.18
28312;BME280;15572;48.810;9.148;2022-07-06T06:46:10;98809.72;;;17.81;74.16
28312;BME280;15572;48.810;9.148;2022-07-06T06:51:07;98814.34;;;17.99;74.04
28312;BME280;15572;48.810;9.148;2022-07-06T06:56:03;98801.16;;;18.26;70.09
28312;BME280;15572;48.810;9.148;2022-07-06T07:01:01;98790.34;;;18.31;68.39
28312;BME280;15572;48.810;9.148;2022-07-06T07:05:58;98798.50;;;18.01;72.05
28312;BME280;15572;48.810;9.148;2022-07-06T07:10:54;98801.72;;;17.98;72.32
28312;BME280;15572;48.810;9.148;2022-07-06T07:15:51;98798.06;;;17.86;73.44
28312;BME280;15572;48.810;9.148;2022-07-06T07:20:49;98800.25;;;17.95;73.71
28312;BME280;15572;48.810;9.148;2022-07-06T07:25:45;98794.63;;;18.08;71.22
28312;BME280;15572;48.810;9.148;2022-07-06T07:30:41;98797.22;;;18.03;71.61
28312;BME280;15572;48.810;9.148;2022-07-06T07:35:38;98780.38;;;18.18;70.22
28312;BME280;15572;48.810;9.148;2022-07-06T07:40:36;98784.03;;;18.12;69.42
28312;BME280;15572;48.810;9.148;2022-07-06T07:45:32;98787.06;;;18.22;70.79
28312;BME280;15572;48.810;9.148;2022-07-06T07:50:29;98788.56;;;18.36;71.26
28312;BME280;15572;48.810;9.148;2022-07-06T07:55:26;98780.25;;;18.43;69.02
28312;BME280;15572;48.810;9.148;2022-07-06T08:00:23;98789.06;;;18.45;70.84
28312;BME280;15572;48.810;9.148;2022-07-06T08:05:20;98784.22;;;18.47;70.57
28312;BME280;15572;48.810;9.148;2022-07-06T08:10:18;98781.09;;;18.73;70.45
28312;BME280;15572;48.810;9.148;2022-07-06T08:15:15;98788.63;;;18.78;69.53
28312;BME280;15572;48.810;9.148;2022-07-06T08:20:13;98794.34;;;18.88;69.69
28312;BME280;15572;48.810;9.148;2022-07-06T08:25:10;98780.03;;;18.86;69.30
28312;BME280;15572;48.810;9.148;2022-07-06T08:30:08;98787.34;;;19.04;69.10
28312;BME280;15572;48.810;9.148;2022-07-06T08:35:05;98785.56;;;19.09;68.67
28312;BME280;15572;48.810;9.148;2022-07-06T08:40:04;98792.25;;;19.13;68.86
28312;BME280;15572;48.810;9.148;2022-07-06T08:45:04;98790.25;;;19.32;67.77
28312;BME280;15572;48.810;9.148;2022-07-06T08:50:02;98785.72;;;19.38;66.17
28312;BME280;15572;48.810;9.148;2022-07-06T08:54:59;98780.09;;;19.44;65.93
28312;BME280;15572;48.810;9.148;2022-07-06T08:59:57;98784.41;;;19.52;65.05
28312;BME280;15572;48.810;9.148;2022-07-06T09:04:55;98779.75;;;19.75;64.81
28312;BME280;15572;48.810;9.148;2022-07-06T09:09:54;98786.97;;;19.93;62.82
28312;BME280;15572;48.810;9.148;2022-07-06T09:14:51;98794.00;;;20.01;61.89
28312;BME280;15572;48.810;9.148;2022-07-06T09:19:48;98801.06;;;20.08;60.86
28312;BME280;15572;48.810;9.148;2022-07-06T09:24:45;98795.28;;;20.10;60.55
28312;BME280;15572;48.810;9.148;2022-07-06T09:29:41;98810.19;;;20.14;61.13
28312;BME280;15572;48.810;9.148;2022-07-06T09:34:42;98807.31;;;20.32;60.02
28312;BME280;15572;48.810;9.148;2022-07-06T09:39:40;98809.28;;;20.48;58.07
28312;BME280;15572;48.810;9.148;2022-07-06T09:44:38;98826.19;;;20.40;59.28
28312;BME280;15572;48.810;9.148;2022-07-06T09:49:36;98813.50;;;20.51;58.37
28312;BME280;15572;48.810;9.148;2022-07-06T09:54:33;98818.06;;;20.62;59.72
28312;BME280;15572;48.810;9.148;2022-07-06T09:59:32;98810.69;;;20.79;57.65
28312;BME280;15572;48.810;9.148;2022-07-06T10:04:29;98814.53;;;20.78;57.13
28312;BME280;15572;48.810;9.148;2022-07-06T10:09:27;98825.09;;;20.98;58.89
28312;BME280;15572;48.810;9.148;2022-07-06T10:14:26;98826.88;;;21.21;58.26
28312;BME280;15572;48.810;9.148;2022-07-06T10:19:26;98825.94;;;21.32;56.10
28312;BME280;15572;48.810;9.148;2022-07-06T10:24:23;98832.63;;;21.19;57.80
28312;BME280;15572;48.810;9.148;2022-07-06T10:29:20;98824.94;;;21.21;58.17
28312;BME280;15572;48.810;9.148;2022-07-06T10:34:18;98821.94;;;21.39;57.43
28312;BME280;15572;48.810;9.148;2022-07-06T10:39:32;98827.78;;;21.43;56.25
28312;BME280;15572;48.810;9.148;2022-07-06T10:44:46;98829.78;;;21.48;55.65
28312;BME280;15572;48.810;9.148;2022-07-06T10:49:48;98817.50;;;21.55;55.33
28312;BME280;15572;48.810;9.148;2022-07-06T10:54:46;98820.72;;;21.47;54.73
28312;BME280;15572;48.810;9.148;2022-07-06T11:00:00;98820.22;;;21.89;54.15
28312;BME280;15572;48.810;9.148;2022-07-06T11:04:57;98823.53;;;21.91;54.02
28312;BME280;15572;48.810;9.148;2022-07-06T11:09:56;98819.78;;;22.40;51.56
28312;BME280;15572;48.810;9.148;2022-07-06T11:14:53;98812.50;;;23.36;49.21
28312;BME280;15572;48.810;9.148;2022-07-06T11:19:50;98819.03;;;24.04;47.08
28312;BME280;15572;48.810;9.148;2022-07-06T11:24:47;98799.66;;;23.99;48.27
28312;BME280;15572;48.810;9.148;2022-07-06T11:29:45;98808.19;;;23.87;48.02
28312;BME280;15572;48.810;9.148;2022-07-06T11:34:43;98794.53;;;23.71;47.97
28312;BME280;15572;48.810;9.148;2022-07-06T11:39:42;98797.50;;;23.27;50.22
28312;BME280;15572;48.810;9.148;2022-07-06T11:44:39;98787.13;;;23.76;49.04
28312;BME280;15572;48.810;9.148;2022-07-06T11:49:39;98783.59;;;24.53;46.38
28312;BME280;15572;48.810;9.148;2022-07-06T11:54:36;98784.75;;;24.67;46.13
28312;BME280;15572;48.810;9.148;2022-07-06T11:59:33;98787.19;;;24.59;44.70
28312;BME280;15572;48.810;9.148;2022-07-06T12:04:31;98771.84;;;23.69;48.43
28312;BME280;15572;48.810;9.148;2022-07-06T12:09:30;98791.63;;;24.60;45.85
28312;BME280;15572;48.810;9.148;2022-07-06T12:14:29;98772.69;;;24.21;46.14
28312;BME280;15572;48.810;9.148;2022-07-06T12:19:25;98770.63;;;23.97;47.31
28312;BME280;15572;48.810;9.148;2022-07-06T12:24:25;98768.38;;;24.56;44.41
28312;BME280;15572;48.810;9.148;2022-07-06T12:29:24;98767.94;;;24.89;44.52
28312;BME280;15572;48.810;9.148;2022-07-06T12:34:22;98777.16;;;24.32;45.01
28312;BME280;15572;48.810;9.148;2022-07-06T12:39:20;98764.81;;;24.65;45.49
28312;BME280;15572;48.810;9.148;2022-07-06T12:44:18;98765.81;;;24.24;45.37
28312;BME280;15572;48.810;9.148;2022-07-06T12:49:18;98757.34;;;24.71;43.45
28312;BME280;15572;48.810;9.148;2022-07-06T12:54:16;98761.56;;;24.94;43.42
28312;BME280;15572;48.810;9.148;2022-07-06T12:59:21;98763.19;;;25.61;41.83
28312;BME280;15572;48.810;9.148;2022-07-06T13:04:20;98758.63;;;26.05;40.52
28312;BME280;15572;48.810;9.148;2022-07-06T13:09:16;98753.75;;;25.72;40.59
28312;BME280;15572;48.810;9.148;2022-07-06T13:14:14;98769.81;;;25.65;40.66
28312;BME280;15572;48.810;9.148;2022-07-06T13:19:11;98753.09;;;26.05;40.83
28312;BME280;15572;48.810;9.148;2022-07-06T13:24:09;98754.88;;;26.89;38.77
28312;BME280;15572;48.810;9.148;2022-07-06T13:29:06;98759.44;;;26.70;38.14
28312;BME280;15572;48.810;9.148;2022-07-06T13:34:02;98744.63;;;26.35;39.89
28312;BME280;15572;48.810;9.148;2022-07-06T13:38:59;98765.66;;;25.72;39.86
28312;BME280;15572;48.810;9.148;2022-07-06T13:43:57;98742.13;;;25.39;40.66
28312;BME280;15572;48.810;9.148;2022-07-06T13:48:56;98736.59;;;25.29;40.25
28312;BME280;15572;48.810;9.148;2022-07-06T13:53:53;98727.47;;;24.83;42.12
28312;BME280;15572;48.810;9.148;2022-07-06T13:58:49;98719.75;;;25.05;41.34
28312;BME280;15572;48.810;9.148;2022-07-06T14:03:48;98722.22;;;24.97;41.48
28312;BME280;15572;48.810;9.148;2022-07-06T14:08:45;98718.59;;;24.71;42.07
28312;BME280;15572;48.810;9.148;2022-07-06T14:13:42;98719.69;;;24.75;41.79
28312;BME280;15572;48.810;9.148;2022-07-06T14:18:39;98731.09;;;24.99;41.60
28312;BME280;15572;48.810;9.148;2022-07-06T14:23:37;98702.81;;;24.61;41.71
28312;BME280;15572;48.810;9.148;2022-07-06T14:28:33;98701.13;;;24.40;42.11
28312;BME280;15572;48.810;9.148;2022-07-06T14:33:30;98701.97;;;24.86;41.62
28312;BME280;15572;48.810;9.148;2022-07-06T14:38:26;98700.88;;;24.52;41.58
28312;BME280;15572;48.810;9.148;2022-07-06T14:43:25;98705.28;;;24.63;42.63
28312;BME280;15572;48.810;9.148;2022-07-06T14:48:21;98693.44;;;25.03;40.34
28312;BME280;15572;48.810;9.148;2022-07-06T14:53:18;98687.88;;;24.78;40.76
28312;BME280;15572;48.810;9.148;2022-07-06T14:58:14;98681.78;;;25.11;39.66
28312;BME280;15572;48.810;9.148;2022-07-06T15:03:14;98690.56;;;25.48;39.81
28312;BME280;15572;48.810;9.148;2022-07-06T15:08:10;98685.81;;;25.74;38.39
28312;BME280;15572;48.810;9.148;2022-07-06T15:13:07;98675.88;;;25.68;38.76
28312;BME280;15572;48.810;9.148;2022-07-06T15:18:03;98665.56;;;25.79;37.86
28312;BME280;15572;48.810;9.148;2022-07-06T15:23:01;98660.00;;;25.84;37.97
28312;BME280;15572;48.810;9.148;2022-07-06T15:27:58;98681.53;;;25.02;39.68
28312;BME280;15572;48.810;9.148;2022-07-06T15:32:55;98674.28;;;24.36;40.42
28312;BME280;15572;48.810;9.148;2022-07-06T15:37:51;98668.00;;;23.88;41.33
28312;BME280;15572;48.810;9.148;2022-07-06T15:42:49;98646.13;;;23.66;41.57
28312;BME280;15572;48.810;9.148;2022-07-06T15:47:46;98650.28;;;23.74;41.84
28312;BME280;15572;48.810;9.148;2022-07-06T15:52:43;98642.50;;;23.56;41.64
28312;BME280;15572;48.810;9.148;2022-07-06T15:57:39;98639.34;;;23.42;41.82
28312;BME280;15572;48.810;9.148;2022-07-06T16:02:37;98649.38;;;23.53;41.91
28312;BME280;15572;48.810;9.148;2022-07-06T16:07:34;98639.25;;;23.27;41.27
28312;BME280;15572;48.810;9.148;2022-07-06T16:12:30;98638.09;;;23.13;41.93
28312;BME280;15572;48.810;9.148;2022-07-06T16:17:27;98628.66;;;23.08;41.22
28312;BME280;15572;48.810;9.148;2022-07-06T16:22:25;98624.47;;;23.01;41.43
28312;BME280;15572;48.810;9.148;2022-07-06T16:27:22;98629.97;;;22.96;41.40
28312;BME280;15572;48.810;9.148;2022-07-06T16:32:18;98626.84;;;22.87;41.46
28312;BME280;15572;48.810;9.148;2022-07-06T16:37:15;98640.03;;;23.17;41.36
28312;BME280;15572;48.810;9.148;2022-07-06T16:42:12;98630.09;;;23.16;40.39
28312;BME280;15572;48.810;9.148;2022-07-06T16:47:09;98626.22;;;23.17;39.57
28312;BME280;15572;48.810;9.148;2022-07-06T16:52:06;98623.91;;;22.99;40.35
28312;BME280;15572;48.810;9.148;2022-07-06T16:57:03;98620.78;;;22.85;39.95
28312;BME280;15572;48.810;9.148;2022-07-06T17:02:01;98621.69;;;22.64;39.55
28312;BME280;15572;48.810;9.148;2022-07-06T17:06:58;98634.63;;;22.58;39.65
28312;BME280;15572;48.810;9.148;2022-07-06T17:11:54;98626.59;;;22.57;38.95
28312;BME280;15572;48.810;9.148;2022-07-06T17:16:51;98632.50;;;22.39;39.35
28312;BME280;15572;48.810;9.148;2022-07-06T17:21:49;98632.13;;;22.57;40.02
28312;BME280;15572;48.810;9.148;2022-07-06T17:26:45;98632.63;;;22.49;38.77
28312;BME280;15572;48.810;9.148;2022-07-06T17:31:42;98643.19;;;22.30;39.47
28312;BME280;15572;48.810;9.148;2022-07-06T17:36:38;98647.63;;;22.31;39.14
28312;BME280;15572;48.810;9.148;2022-07-06T17:41:36;98650.47;;;22.14;39.52
28312;BME280;15572;48.810;9.148;2022-07-06T17:46:33;98656.34;;;21.96;39.56
28312;BME280;15572;48.810;9.148;2022-07-06T17:51:30;98650.91;;;21.79;40.23
28312;BME280;15572;48.810;9.148;2022-07-06T17:56:27;98656.13;;;21.81;40.08
28312;BME280;15572;48.810;9.148;2022-07-06T18:01:25;98670.03;;;21.69;40.08
28312;BME280;15572;48.810;9.148;2022-07-06T18:06:21;98665.78;;;21.57;40.63
28312;BME280;15572;48.810;9.148;2022-07-06T18:11:18;98680.03;;;21.54;40.85
28312;BME280;15572;48.810;9.148;2022-07-06T18:16:14;98677.44;;;21.42;40.57
28312;BME280;15572;48.810;9.148;2022-07-06T18:21:12;98683.88;;;21.31;41.02
28312;BME280;15572;48.810;9.148;2022-07-06T18:26:09;98677.63;;;21.19;40.01
28312;BME280;15572;48.810;9.148;2022-07-06T18:31:07;98693.81;;;20.98;40.70
28312;BME280;15572;48.810;9.148;2022-07-06T18:36:04;98687.03;;;21.06;40.69
28312;BME280;15572;48.810;9.148;2022-07-06T18:41:02;98685.31;;;21.17;40.86
28312;BME280;15572;48.810;9.148;2022-07-06T18:46:01;98690.47;;;21.30;40.87
28312;BME280;15572;48.810;9.148;2022-07-06T18:50:57;98682.00;;;21.15;41.07
28312;BME280;15572;48.810;9.148;2022-07-06T18:55:54;98693.75;;;20.93;41.48
28312;BME280;15572;48.810;9.148;2022-07-06T19:00:52;98695.41;;;20.78;42.07
28312;BME280;15572;48.810;9.148;2022-07-06T19:05:49;98695.97;;;20.63;42.87
28312;BME280;15572;48.810;9.148;2022-07-06T19:10:45;98701.97;;;20.43;43.54
28312;BME280;15572;48.810;9.148;2022-07-06T19:15:42;98709.22;;;20.21;44.15
28312;BME280;15572;48.810;9.148;2022-07-06T19:20:40;98710.94;;;20.10;45.08
28312;BME280;15572;48.810;9.148;2022-07-06T19:25:36;98725.47;;;19.83;45.63
28312;BME280;15572;48.810;9.148;2022-07-06T19:30:33;98729.59;;;19.57;46.57
28312;BME280;15572;48.810;9.148;2022-07-06T19:35:30;98737.25;;;19.43;47.17
28312;BME280;15572;48.810;9.148;2022-07-06T19:40:28;98744.19;;;19.22;47.64
28312;BME280;15572;48.810;9.148;2022-07-06T19:45:24;98747.88;;;19.05;47.83
28312;BME280;15572;48.810;9.148;2022-07-06T19:50:21;98756.91;;;18.93;48.00
28312;BME280;15572;48.810;9.148;2022-07-06T19:55:17;98750.81;;;18.80;48.39
28312;BME280;15572;48.810;9.148;2022-07-06T20:00:17;98764.03;;;18.71;49.06
28312;BME280;15572;48.810;9.148;2022-07-06T20:05:13;98773.16;;;18.54;49.49
28312;BME280;15572;48.810;9.148;2022-07-06T20:10:10;98777.75;;;18.41;50.30
28312;BME280;15572;48.810;9.148;2022-07-06T20:15:07;98775.94;;;18.35;50.88
28312;BME280;15572;48.810;9.148;2022-07-06T20:20:06;98773.97;;;18.24;51.30
28312;BME280;15572;48.810;9.148;2022-07-06T20:25:03;98775.94;;;18.05;51.79
28312;BME280;15572;48.810;9.148;2022-07-06T20:30:00;98775.31;;;18.03;52.36
28312;BME280;15572;48.810;9.148;2022-07-06T20:34:56;98775.16;;;17.98;52.79
28312;BME280;15572;48.810;9.148;2022-07-06T20:39:54;98777.38;;;17.72;53.97
28312;BME280;15572;48.810;9.148;2022-07-06T20:44:51;98774.56;;;17.60;54.40
28312;BME280;15572;48.810;9.148;2022-07-06T20:49:47;98773.38;;;17.49;55.18
28312;BME280;15572;48.810;9.148;2022-07-06T20:54:44;98765.56;;;17.35;55.85
28312;BME280;15572;48.810;9.148;2022-07-06T20:59:41;98781.75;;;17.11;58.08
28312;BME280;15572;48.810;9.148;2022-07-06T21:04:38;98781.59;;;16.81;59.71
28312;BME280;15572;48.810;9.148;2022-07-06T21:09:35;98790.38;;;16.59;60.96
28312;BME280;15572;48.810;9.148;2022-07-06T21:14:31;98792.78;;;16.42;61.98
28312;BME280;15572;48.810;9.148;2022-07-06T21:19:29;98790.34;;;16.27;63.04
28312;BME280;15572;48.810;9.148;2022-07-06T21:24:26;98793.78;;;16.10;64.32
28312;BME280;15572;48.810;9.148;2022-07-06T21:29:22;98794.75;;;15.84;65.74
28312;BME280;15572;48.810;9.148;2022-07-06T21:34:19;98786.19;;;15.67;67.38
28312;BME280;15572;48.810;9.148;2022-07-06T21:39:17;98785.59;;;15.52;68.65
28312;BME280;15572;48.810;9.148;2022-07-06T21:44:14;98787.72;;;15.43;69.09
28312;BME280;15572;48.810;9.148;2022-07-06T21:49:10;98784.13;;;15.43;68.21
28312;BME280;15572;48.810;9.148;2022-07-06T21:54:07;98783.50;;;15.41;67.63
28312;BME280;15572;48.810;9.148;2022-07-06T21:59:05;98778.47;;;15.38;68.10
28312;BME280;15572;48.810;9.148;2022-07-06T22:04:01;98783.31;;;15.23;70.52
28312;BME280;15572;48.810;9.148;2022-07-06T22:08:58;98771.78;;;15.07;71.07
28312;BME280;15572;48.810;9.148;2022-07-06T22:13:54;98769.75;;;14.90;71.35
28312;BME280;15572;48.810;9.148;2022-07-06T22:18:52;98770.97;;;14.87;71.89
28312;BME280;15572;48.810;9.148;2022-07-06T22:23:50;98771.81;;;14.74;73.05
28312;BME280;15572;48.810;9.148;2022-07-06T22:28:47;98774.75;;;14.60;74.43
28312;BME280;15572;48.810;9.148;2022-07-06T22:33:43;98777.66;;;14.58;75.11
28312;BME280;15572;48.810;9.148;2022-07-06T22:38:41;98771.38;;;14.51;74.98
28312;BME280;15572;48.810;9.148;2022-07-06T22:43:39;98772.84;;;14.47;75.12
28312;BME280;15572;48.810;9.148;2022-07-06T22:48:35;98765.09;;;14.44;74.76
28312;BME280;15572;48.810;9.148;2022-07-06T22:53:32;98761.94;;;14.41;74.90
28312;BME280;15572;48.810;9.148;2022-07-06T22:58:30;98765.66;;;14.33;75.45
28312;BME280;15572;48.810;9.148;2022-07-06T23:03:27;98762.53;;;14.36;75.23
28312;BME280;15572;48.810;9.148;2022-07-06T23:08:23;98759.41;;;14.39;74.59
28312;BME280;15572;48.810;9.148;2022-07-06T23:13:20;98757.94;;;14.43;74.85
28312;BME280;15572;48.810;9.148;2022-07-06T23:18:18;98749.53;;;14.31;76.29
28312;BME280;15572;48.810;9.148;2022-07-06T23:23:14;98745.53;;;14.27;76.81
28312;BME280;15572;48.810;9.148;2022-07-06T23:28:11;98752.09;;;14.40;78.27
28312;BME280;15572;48.810;9.148;2022-07-06T23:33:07;98753.34;;;14.44;76.79
28312;BME280;15572;48.810;9.148;2022-07-06T23:38:05;98754.38;;;14.43;75.70
28312;BME280;15572;48.810;9.148;2022-07-06T23:43:02;98753.97;;;14.39;75.63
28312;BME280;15572;48.810;9.148;2022-07-06T23:47:58;98751.25;;;14.39;75.40
28312;BME280;15572;48.810;9.148;2022-07-06T23:52:55;98740.75;;;14.43;77.35
28312;BME280;15572;48.810;9.148;2022-07-06T23:57:53;98733.03;;;14.40;78.96
